sensor_id;sensor_type;location;lat;lon;timestamp;P1;durP1;ratioP1;P2;durP2;ratioP2
51286;SDS011;37364;46.974;18.916;2022-11-15T00:01:43;218.55;;;55.35;;
51286;SDS011;37364;46.974;18.916;2022-11-15T00:04:31;154.68;;;56.28;;
51286;SDS011;37364;46.974;18.916;2022-11-15T00:07:20;465.27;;;63.70;;
51286;SDS011;37364;46.974;18.916;2022-11-15T00:10:29;152.57;;;55.00;;
51286;SDS011;37364;46.974;18.916;2022-11-15T00:13:18;300.50;;;58.45;;
51286;SDS011;37364;46.974;18.916;2022-11-15T00:16:08;182.32;;;56.45;;
51286;SDS011;37364;46.974;18.916;2022-11-15T00:18:59;200.82;;;56.80;;
51286;SDS011;37364;46.974;18.916;2022-11-15T00:21:48;277.02;;;59.47;;
51286;SDS011;37364;46.974;18.916;2022-11-15T00:24:37;330.13;;;56.97;;
51286;SDS011;37364;46.974;18.916;2022-11-15T00:27:25;305.73;;;59.10;;
51286;SDS011;37364;46.974;18.916;2022-11-15T00:30:16;155.63;;;53.63;;
51286;SDS011;37364;46.974;18.916;2022-11-15T00:33:05;245.43;;;56.00;;
51286;SDS011;37364;46.974;18.916;2022-11-15T00:36:01;418.17;;;63.50;;
51286;SDS011;37364;46.974;18.916;2022-11-15T00:38:52;336.38;;;57.90;;
51286;SDS011;37364;46.974;18.916;2022-11-15T00:41:40;188.38;;;53.40;;
51286;SDS011;37364;46.974;18.916;2022-11-15T00:44:29;192.65;;;55.42;;
51286;SDS011;37364;46.974;18.916;2022-11-15T00:47:18;211.40;;;59.08;;
51286;SDS011;37364;46.974;18.916;2022-11-15T00:50:06;435.17;;;62.25;;
51286;SDS011;37364;46.974;18.916;2022-11-15T00:53:02;152.07;;;54.90;;
51286;SDS011;37364;46.974;18.916;2022-11-15T00:55:51;85.93;;;51.35;;
51286;SDS011;37364;46.974;18.916;2022-11-15T00:58:39;80.65;;;50.33;;
51286;SDS011;37364;46.974;18.916;2022-11-15T01:01:28;71.50;;;47.33;;
51286;SDS011;37364;46.974;18.916;2022-11-15T01:04:17;89.13;;;48.63;;
51286;SDS011;37364;46.974;18.916;2022-11-15T01:07:06;93.70;;;47.30;;
51286;SDS011;37364;46.974;18.916;2022-11-15T01:09:58;151.00;;;51.17;;
51286;SDS011;37364;46.974;18.916;2022-11-15T01:12:46;72.80;;;48.03;;
51286;SDS011;37364;46.974;18.916;2022-11-15T01:15:38;77.18;;;49.35;;
51286;SDS011;37364;46.974;18.916;2022-11-15T01:18:29;94.70;;;50.45;;
51286;SDS011;37364;46.974;18.916;2022-11-15T01:21:19;173.10;;;54.33;;
51286;SDS011;37364;46.974;18.916;2022-11-15T01:24:09;277.10;;;55.55;;
51286;SDS011;37364;46.974;18.916;2022-11-15T01:27:03;96.80;;;52.30;;
51286;SDS011;37364;46.974;18.916;2022-11-15T01:29:52;87.10;;;50.40;;
51286;SDS011;37364;46.974;18.916;2022-11-15T01:32:41;130.07;;;51.75;;
51286;SDS011;37364;46.974;18.916;2022-11-15T01:35:29;142.15;;;52.53;;
51286;SDS011;37364;46.974;18.916;2022-11-15T01:38:18;433.15;;;57.30;;
51286;SDS011;37364;46.974;18.916;2022-11-15T01:41:11;379.70;;;58.95;;
51286;SDS011;37364;46.974;18.916;2022-11-15T01:47:26;182.73;;;53.42;;
51286;SDS011;37364;46.974;18.916;2022-11-15T01:50:19;306.30;;;56.22;;
51286;SDS011;37364;46.974;18.916;2022-11-15T01:53:11;343.45;;;55.38;;
51286;SDS011;37364;46.974;18.916;2022-11-15T01:56:01;232.75;;;54.00;;
51286;SDS011;37364;46.974;18.916;2022-11-15T01:58:52;208.52;;;53.72;;
51286;SDS011;37364;46.974;18.916;2022-11-15T02:01:46;424.48;;;64.53;;
51286;SDS011;37364;46.974;18.916;2022-11-15T02:04:35;95.55;;;54.10;;
51286;SDS011;37364;46.974;18.916;2022-11-15T02:07:28;100.80;;;54.20;;
51286;SDS011;37364;46.974;18.916;2022-11-15T02:10:20;115.43;;;55.35;;
51286;SDS011;37364;46.974;18.916;2022-11-15T02:13:10;172.13;;;54.38;;
51286;SDS011;37364;46.974;18.916;2022-11-15T02:15:59;750.00;;;74.85;;
51286;SDS011;37364;46.974;18.916;2022-11-15T02:19:01;293.50;;;62.20;;
51286;SDS011;37364;46.974;18.916;2022-11-15T02:22:03;405.37;;;59.00;;
51286;SDS011;37364;46.974;18.916;2022-11-15T02:25:03;281.30;;;60.50;;
51286;SDS011;37364;46.974;18.916;2022-11-15T02:31:34;268.42;;;53.78;;
51286;SDS011;37364;46.974;18.916;2022-11-15T02:34:32;242.77;;;52.42;;
51286;SDS011;37364;46.974;18.916;2022-11-15T02:37:33;637.20;;;66.50;;
51286;SDS011;37364;46.974;18.916;2022-11-15T02:40:31;311.98;;;52.95;;
51286;SDS011;37364;46.974;18.916;2022-11-15T02:43:29;709.38;;;72.60;;
51286;SDS011;37364;46.974;18.916;2022-11-15T02:46:40;817.97;;;69.75;;
51286;SDS011;37364;46.974;18.916;2022-11-15T02:49:45;645.63;;;72.18;;
51286;SDS011;37364;46.974;18.916;2022-11-15T02:52:37;669.33;;;67.32;;
51286;SDS011;37364;46.974;18.916;2022-11-15T02:55:27;908.70;;;77.65;;
51286;SDS011;37364;46.974;18.916;2022-11-15T03:01:51;425.90;;;64.82;;
51286;SDS011;37364;46.974;18.916;2022-11-15T03:04:50;218.05;;;57.60;;
51286;SDS011;37364;46.974;18.916;2022-11-15T03:07:44;374.50;;;61.05;;
51286;SDS011;37364;46.974;18.916;2022-11-15T03:10:48;104.45;;;54.35;;
51286;SDS011;37364;46.974;18.916;2022-11-15T03:13:46;622.45;;;71.20;;
51286;SDS011;37364;46.974;18.916;2022-11-15T03:16:41;250.55;;;59.33;;
51286;SDS011;37364;46.974;18.916;2022-11-15T03:19:40;278.15;;;59.45;;
51286;SDS011;37364;46.974;18.916;2022-11-15T03:22:35;527.72;;;71.57;;
51286;SDS011;37364;46.974;18.916;2022-11-15T03:25:28;617.33;;;72.38;;
51286;SDS011;37364;46.974;18.916;2022-11-15T03:28:20;190.20;;;57.78;;
51286;SDS011;37364;46.974;18.916;2022-11-15T03:31:13;265.77;;;60.72;;
51286;SDS011;37364;46.974;18.916;2022-11-15T03:34:22;309.77;;;62.40;;
51286;SDS011;37364;46.974;18.916;2022-11-15T03:37:20;555.95;;;70.68;;
51286;SDS011;37364;46.974;18.916;2022-11-15T03:40:12;395.10;;;60.55;;
51286;SDS011;37364;46.974;18.916;2022-11-15T03:43:04;356.95;;;61.38;;
51286;SDS011;37364;46.974;18.916;2022-11-15T03:45:59;223.10;;;56.10;;
51286;SDS011;37364;46.974;18.916;2022-11-15T03:48:53;212.65;;;57.63;;
51286;SDS011;37364;46.974;18.916;2022-11-15T03:51:49;322.08;;;61.85;;
51286;SDS011;37364;46.974;18.916;2022-11-15T03:54:49;166.80;;;55.92;;
51286;SDS011;37364;46.974;18.916;2022-11-15T03:57:40;210.95;;;58.80;;
51286;SDS011;37364;46.974;18.916;2022-11-15T04:00:29;225.05;;;57.05;;
51286;SDS011;37364;46.974;18.916;2022-11-15T04:03:22;322.65;;;57.15;;
51286;SDS011;37364;46.974;18.916;2022-11-15T04:06:12;243.05;;;59.30;;
51286;SDS011;37364;46.974;18.916;2022-11-15T04:09:01;88.55;;;55.33;;
51286;SDS011;37364;46.974;18.916;2022-11-15T04:11:52;85.78;;;52.85;;
51286;SDS011;37364;46.974;18.916;2022-11-15T04:14:41;73.45;;;48.78;;
51286;SDS011;37364;46.974;18.916;2022-11-15T04:17:51;73.13;;;46.80;;
51286;SDS011;37364;46.974;18.916;2022-11-15T04:20:41;70.15;;;46.78;;
51286;SDS011;37364;46.974;18.916;2022-11-15T04:23:42;73.57;;;48.67;;
51286;SDS011;37364;46.974;18.916;2022-11-15T04:26:43;75.10;;;49.05;;
51286;SDS011;37364;46.974;18.916;2022-11-15T04:29:35;75.10;;;48.15;;
51286;SDS011;37364;46.974;18.916;2022-11-15T04:32:24;79.55;;;49.45;;
51286;SDS011;37364;46.974;18.916;2022-11-15T04:35:14;83.93;;;48.65;;
51286;SDS011;37364;46.974;18.916;2022-11-15T04:38:03;135.95;;;53.20;;
51286;SDS011;37364;46.974;18.916;2022-11-15T04:40:54;117.45;;;52.65;;
51286;SDS011;37364;46.974;18.916;2022-11-15T04:43:42;84.70;;;52.05;;
51286;SDS011;37364;46.974;18.916;2022-11-15T04:46:34;205.07;;;56.63;;
51286;SDS011;37364;46.974;18.916;2022-11-15T04:49:23;93.05;;;51.33;;
51286;SDS011;37364;46.974;18.916;2022-11-15T04:52:11;233.55;;;59.92;;
51286;SDS011;37364;46.974;18.916;2022-11-15T04:55:00;102.78;;;55.42;;
51286;SDS011;37364;46.974;18.916;2022-11-15T04:57:58;399.52;;;64.07;;
51286;SDS011;37364;46.974;18.916;2022-11-15T05:00:47;110.43;;;56.15;;
51286;SDS011;37364;46.974;18.916;2022-11-15T05:03:40;111.00;;;56.42;;
51286;SDS011;37364;46.974;18.916;2022-11-15T05:06:41;103.38;;;53.55;;
51286;SDS011;37364;46.974;18.916;2022-11-15T05:09:29;129.35;;;57.72;;
51286;SDS011;37364;46.974;18.916;2022-11-15T05:12:18;178.90;;;60.58;;
51286;SDS011;37364;46.974;18.916;2022-11-15T05:15:07;123.63;;;58.45;;
51286;SDS011;37364;46.974;18.916;2022-11-15T05:17:57;314.92;;;67.32;;
51286;SDS011;37364;46.974;18.916;2022-11-15T05:20:50;338.33;;;64.38;;
51286;SDS011;37364;46.974;18.916;2022-11-15T05:23:39;201.48;;;59.58;;
51286;SDS011;37364;46.974;18.916;2022-11-15T05:26:29;204.93;;;60.17;;
51286;SDS011;37364;46.974;18.916;2022-11-15T05:29:17;198.70;;;63.00;;
51286;SDS011;37364;46.974;18.916;2022-11-15T05:32:06;206.27;;;59.85;;
51286;SDS011;37364;46.974;18.916;2022-11-15T05:34:57;222.45;;;60.90;;
51286;SDS011;37364;46.974;18.916;2022-11-15T05:37:49;105.57;;;60.20;;
51286;SDS011;37364;46.974;18.916;2022-11-15T05:40:42;103.53;;;59.13;;
51286;SDS011;37364;46.974;18.916;2022-11-15T05:43:31;101.80;;;60.47;;
51286;SDS011;37364;46.974;18.916;2022-11-15T05:46:24;121.25;;;57.75;;
51286;SDS011;37364;46.974;18.916;2022-11-15T05:49:14;147.80;;;58.35;;
51286;SDS011;37364;46.974;18.916;2022-11-15T05:52:06;158.70;;;61.72;;
51286;SDS011;37364;46.974;18.916;2022-11-15T05:55:00;262.85;;;67.57;;
51286;SDS011;37364;46.974;18.916;2022-11-15T05:57:51;184.00;;;61.27;;
51286;SDS011;37364;46.974;18.916;2022-11-15T06:00:41;163.00;;;61.25;;
51286;SDS011;37364;46.974;18.916;2022-11-15T06:03:30;163.85;;;61.33;;
51286;SDS011;37364;46.974;18.916;2022-11-15T06:06:19;117.47;;;58.45;;
51286;SDS011;37364;46.974;18.916;2022-11-15T06:09:08;99.10;;;57.75;;
51286;SDS011;37364;46.974;18.916;2022-11-15T06:11:59;102.00;;;56.80;;
51286;SDS011;37364;46.974;18.916;2022-11-15T06:14:49;96.85;;;55.70;;
51286;SDS011;37364;46.974;18.916;2022-11-15T06:17:37;113.22;;;54.00;;
51286;SDS011;37364;46.974;18.916;2022-11-15T06:20:26;97.20;;;52.90;;
51286;SDS011;37364;46.974;18.916;2022-11-15T06:23:16;87.15;;;52.53;;
51286;SDS011;37364;46.974;18.916;2022-11-15T06:26:05;93.88;;;54.33;;
51286;SDS011;37364;46.974;18.916;2022-11-15T06:28:56;96.85;;;55.22;;
51286;SDS011;37364;46.974;18.916;2022-11-15T06:31:45;156.07;;;53.08;;
51286;SDS011;37364;46.974;18.916;2022-11-15T06:34:33;79.85;;;53.22;;
51286;SDS011;37364;46.974;18.916;2022-11-15T06:37:22;96.43;;;54.78;;
51286;SDS011;37364;46.974;18.916;2022-11-15T06:40:11;97.68;;;54.47;;
51286;SDS011;37364;46.974;18.916;2022-11-15T06:43:01;116.97;;;52.38;;
51286;SDS011;37364;46.974;18.916;2022-11-15T06:45:53;104.03;;;54.78;;
51286;SDS011;37364;46.974;18.916;2022-11-15T06:48:42;99.80;;;53.65;;
51286;SDS011;37364;46.974;18.916;2022-11-15T06:51:30;96.97;;;56.63;;
51286;SDS011;37364;46.974;18.916;2022-11-15T06:54:20;176.32;;;54.45;;
51286;SDS011;37364;46.974;18.916;2022-11-15T06:57:09;110.82;;;54.35;;
51286;SDS011;37364;46.974;18.916;2022-11-15T06:59:58;235.95;;;55.63;;
51286;SDS011;37364;46.974;18.916;2022-11-15T07:02:49;145.23;;;56.10;;
51286;SDS011;37364;46.974;18.916;2022-11-15T07:05:38;156.50;;;58.08;;
51286;SDS011;37364;46.974;18.916;2022-11-15T07:08:27;162.52;;;57.88;;
51286;SDS011;37364;46.974;18.916;2022-11-15T07:11:16;166.23;;;57.33;;
51286;SDS011;37364;46.974;18.916;2022-11-15T07:14:05;97.47;;;54.47;;
51286;SDS011;37364;46.974;18.916;2022-11-15T07:16:53;99.00;;;53.90;;
51286;SDS011;37364;46.974;18.916;2022-11-15T07:19:45;142.95;;;54.90;;
51286;SDS011;37364;46.974;18.916;2022-11-15T07:22:34;179.52;;;58.67;;
51286;SDS011;37364;46.974;18.916;2022-11-15T07:25:22;101.10;;;55.38;;
51286;SDS011;37364;46.974;18.916;2022-11-15T07:28:11;162.38;;;55.35;;
51286;SDS011;37364;46.974;18.916;2022-11-15T07:31:01;107.05;;;57.47;;
51286;SDS011;37364;46.974;18.916;2022-11-15T07:33:51;124.90;;;55.35;;
51286;SDS011;37364;46.974;18.916;2022-11-15T07:36:43;107.90;;;58.13;;
51286;SDS011;37364;46.974;18.916;2022-11-15T07:39:31;119.15;;;56.53;;
51286;SDS011;37364;46.974;18.916;2022-11-15T07:42:20;106.47;;;56.28;;
51286;SDS011;37364;46.974;18.916;2022-11-15T07:45:21;105.88;;;54.45;;
51286;SDS011;37364;46.974;18.916;2022-11-15T07:48:14;104.97;;;53.55;;
51286;SDS011;37364;46.974;18.916;2022-11-15T07:51:04;93.95;;;54.70;;
51286;SDS011;37364;46.974;18.916;2022-11-15T07:54:00;89.40;;;55.78;;
51286;SDS011;37364;46.974;18.916;2022-11-15T07:56:49;96.35;;;57.83;;
51286;SDS011;37364;46.974;18.916;2022-11-15T07:59:37;115.60;;;59.80;;
51286;SDS011;37364;46.974;18.916;2022-11-15T08:02:26;96.13;;;57.35;;
51286;SDS011;37364;46.974;18.916;2022-11-15T08:05:15;92.13;;;57.97;;
51286;SDS011;37364;46.974;18.916;2022-11-15T08:08:04;100.80;;;58.47;;
51286;SDS011;37364;46.974;18.916;2022-11-15T08:10:56;97.45;;;57.55;;
51286;SDS011;37364;46.974;18.916;2022-11-15T08:13:46;109.10;;;57.08;;
51286;SDS011;37364;46.974;18.916;2022-11-15T08:16:34;97.47;;;59.60;;
51286;SDS011;37364;46.974;18.916;2022-11-15T08:19:23;101.10;;;62.50;;
51286;SDS011;37364;46.974;18.916;2022-11-15T08:22:11;101.80;;;61.05;;
51286;SDS011;37364;46.974;18.916;2022-11-15T08:24:59;104.47;;;61.25;;
51286;SDS011;37364;46.974;18.916;2022-11-15T08:27:53;116.10;;;66.40;;
51286;SDS011;37364;46.974;18.916;2022-11-15T08:30:43;112.78;;;64.13;;
51286;SDS011;37364;46.974;18.916;2022-11-15T08:33:32;121.70;;;67.20;;
51286;SDS011;37364;46.974;18.916;2022-11-15T08:36:22;112.97;;;68.20;;
51286;SDS011;37364;46.974;18.916;2022-11-15T08:39:11;106.35;;;63.53;;
51286;SDS011;37364;46.974;18.916;2022-11-15T08:42:00;103.13;;;62.35;;
51286;SDS011;37364;46.974;18.916;2022-11-15T08:44:51;105.07;;;65.10;;
51286;SDS011;37364;46.974;18.916;2022-11-15T08:47:39;98.15;;;62.83;;
51286;SDS011;37364;46.974;18.916;2022-11-15T08:50:31;95.22;;;63.75;;
51286;SDS011;37364;46.974;18.916;2022-11-15T08:53:19;112.70;;;65.70;;
51286;SDS011;37364;46.974;18.916;2022-11-15T08:56:08;94.28;;;61.83;;
51286;SDS011;37364;46.974;18.916;2022-11-15T08:58:58;93.78;;;62.33;;
51286;SDS011;37364;46.974;18.916;2022-11-15T09:01:51;86.53;;;61.08;;
51286;SDS011;37364;46.974;18.916;2022-11-15T09:04:40;79.28;;;56.67;;
51286;SDS011;37364;46.974;18.916;2022-11-15T09:07:29;82.47;;;56.30;;
51286;SDS011;37364;46.974;18.916;2022-11-15T09:10:19;90.60;;;59.90;;
51286;SDS011;37364;46.974;18.916;2022-11-15T09:13:09;84.60;;;60.83;;
51286;SDS011;37364;46.974;18.916;2022-11-15T09:15:59;84.63;;;59.35;;
51286;SDS011;37364;46.974;18.916;2022-11-15T09:18:51;82.93;;;58.53;;
51286;SDS011;37364;46.974;18.916;2022-11-15T09:21:41;84.53;;;60.65;;
51286;SDS011;37364;46.974;18.916;2022-11-15T09:24:29;81.57;;;57.40;;
51286;SDS011;37364;46.974;18.916;2022-11-15T09:27:19;82.10;;;58.83;;
51286;SDS011;37364;46.974;18.916;2022-11-15T09:30:08;79.28;;;56.72;;
51286;SDS011;37364;46.974;18.916;2022-11-15T09:32:58;85.93;;;60.30;;
51286;SDS011;37364;46.974;18.916;2022-11-15T09:35:49;82.43;;;58.70;;
51286;SDS011;37364;46.974;18.916;2022-11-15T09:38:38;87.53;;;59.75;;
51286;SDS011;37364;46.974;18.916;2022-11-15T09:41:36;89.57;;;63.05;;
51286;SDS011;37364;46.974;18.916;2022-11-15T09:44:49;103.93;;;70.30;;
51286;SDS011;37364;46.974;18.916;2022-11-15T09:51:02;93.63;;;65.22;;
51286;SDS011;37364;46.974;18.916;2022-11-15T09:53:36;99.75;;;66.90;;
51286;SDS011;37364;46.974;18.916;2022-11-15T09:56:31;84.63;;;61.85;;
51286;SDS011;37364;46.974;18.916;2022-11-15T09:59:08;90.85;;;65.45;;
51286;SDS011;37364;46.974;18.916;2022-11-15T10:02:03;92.65;;;66.38;;
51286;SDS011;37364;46.974;18.916;2022-11-15T10:04:46;91.93;;;64.63;;
51286;SDS011;37364;46.974;18.916;2022-11-15T10:07:20;89.45;;;63.30;;
51286;SDS011;37364;46.974;18.916;2022-11-15T10:09:57;92.22;;;63.65;;
51286;SDS011;37364;46.974;18.916;2022-11-15T10:12:32;94.93;;;64.55;;
51286;SDS011;37364;46.974;18.916;2022-11-15T10:15:05;85.05;;;62.92;;
51286;SDS011;37364;46.974;18.916;2022-11-15T10:20:46;96.82;;;71.85;;
51286;SDS011;37364;46.974;18.916;2022-11-15T10:23:21;93.10;;;65.53;;
51286;SDS011;37364;46.974;18.916;2022-11-15T10:25:52;94.45;;;64.10;;
51286;SDS011;37364;46.974;18.916;2022-11-15T10:28:32;87.80;;;62.45;;
51286;SDS011;37364;46.974;18.916;2022-11-15T10:31:02;101.07;;;66.60;;
51286;SDS011;37364;46.974;18.916;2022-11-15T10:33:33;90.75;;;63.88;;
51286;SDS011;37364;46.974;18.916;2022-11-15T10:39:02;93.70;;;65.32;;
51286;SDS011;37364;46.974;18.916;2022-11-15T10:41:37;99.15;;;64.82;;
51286;SDS011;37364;46.974;18.916;2022-11-15T10:44:22;101.03;;;67.90;;
51286;SDS011;37364;46.974;18.916;2022-11-15T10:47:06;90.93;;;59.50;;
51286;SDS011;37364;46.974;18.916;2022-11-15T10:49:56;85.25;;;61.22;;
51286;SDS011;37364;46.974;18.916;2022-11-15T10:52:31;95.03;;;63.90;;
51286;SDS011;37364;46.974;18.916;2022-11-15T10:55:19;93.55;;;64.78;;
51286;SDS011;37364;46.974;18.916;2022-11-15T10:57:54;88.28;;;63.10;;
51286;SDS011;37364;46.974;18.916;2022-11-15T11:00:35;104.32;;;65.45;;
51286;SDS011;37364;46.974;18.916;2022-11-15T11:03:20;90.53;;;63.83;;
51286;SDS011;37364;46.974;18.916;2022-11-15T11:06:05;88.32;;;64.00;;
51286;SDS011;37364;46.974;18.916;2022-11-15T11:08:38;94.22;;;66.38;;
51286;SDS011;37364;46.974;18.916;2022-11-15T11:11:11;91.90;;;65.25;;
51286;SDS011;37364;46.974;18.916;2022-11-15T11:13:41;94.82;;;68.57;;
51286;SDS011;37364;46.974;18.916;2022-11-15T11:19:16;87.07;;;61.25;;
51286;SDS011;37364;46.974;18.916;2022-11-15T11:22:01;157.00;;;84.30;;
51286;SDS011;37364;46.974;18.916;2022-11-15T11:24:40;156.40;;;91.30;;
51286;SDS011;37364;46.974;18.916;2022-11-15T11:27:21;142.88;;;82.60;;
51286;SDS011;37364;46.974;18.916;2022-11-15T11:30:03;96.30;;;62.92;;
51286;SDS011;37364;46.974;18.916;2022-11-15T11:35:34;97.28;;;64.57;;
51286;SDS011;37364;46.974;18.916;2022-11-15T11:38:22;82.55;;;59.03;;
51286;SDS011;37364;46.974;18.916;2022-11-15T11:41:07;96.45;;;60.90;;
51286;SDS011;37364;46.974;18.916;2022-11-15T11:43:48;88.35;;;62.13;;
51286;SDS011;37364;46.974;18.916;2022-11-15T11:46:35;86.95;;;62.60;;
51286;SDS011;37364;46.974;18.916;2022-11-15T11:49:18;85.30;;;62.80;;
51286;SDS011;37364;46.974;18.916;2022-11-15T11:51:55;96.90;;;64.30;;
51286;SDS011;37364;46.974;18.916;2022-11-15T11:54:33;93.28;;;65.22;;
51286;SDS011;37364;46.974;18.916;2022-11-15T11:57:12;100.50;;;69.28;;
51286;SDS011;37364;46.974;18.916;2022-11-15T11:59:49;106.15;;;71.88;;
51286;SDS011;37364;46.974;18.916;2022-11-15T12:02:25;97.53;;;69.07;;
51286;SDS011;37364;46.974;18.916;2022-11-15T12:05:01;102.60;;;72.90;;
51286;SDS011;37364;46.974;18.916;2022-11-15T12:07:38;116.32;;;77.35;;
51286;SDS011;37364;46.974;18.916;2022-11-15T12:10:18;123.55;;;78.50;;
51286;SDS011;37364;46.974;18.916;2022-11-15T12:12:56;128.00;;;79.03;;
51286;SDS011;37364;46.974;18.916;2022-11-15T12:15:35;136.32;;;84.00;;
51286;SDS011;37364;46.974;18.916;2022-11-15T12:18:13;203.23;;;100.88;;
51286;SDS011;37364;46.974;18.916;2022-11-15T12:20:50;263.95;;;112.78;;
51286;SDS011;37364;46.974;18.916;2022-11-15T12:23:25;253.50;;;117.35;;
51286;SDS011;37364;46.974;18.916;2022-11-15T12:25:58;254.90;;;117.43;;
51286;SDS011;37364;46.974;18.916;2022-11-15T12:28:34;284.73;;;128.10;;
51286;SDS011;37364;46.974;18.916;2022-11-15T12:31:32;268.95;;;124.65;;
51286;SDS011;37364;46.974;18.916;2022-11-15T12:34:13;302.25;;;133.75;;
51286;SDS011;37364;46.974;18.916;2022-11-15T12:36:59;324.95;;;144.60;;
51286;SDS011;37364;46.974;18.916;2022-11-15T12:42:38;281.80;;;133.30;;
51286;SDS011;37364;46.974;18.916;2022-11-15T12:45:24;325.90;;;140.38;;
51286;SDS011;37364;46.974;18.916;2022-11-15T12:48:21;294.00;;;135.80;;
51286;SDS011;37364;46.974;18.916;2022-11-15T12:51:04;305.42;;;132.57;;
51286;SDS011;37364;46.974;18.916;2022-11-15T12:53:35;284.15;;;132.73;;
51286;SDS011;37364;46.974;18.916;2022-11-15T12:56:09;292.67;;;137.65;;
51286;SDS011;37364;46.974;18.916;2022-11-15T12:58:52;297.75;;;145.35;;
51286;SDS011;37364;46.974;18.916;2022-11-15T13:04:29;251.07;;;125.53;;
51286;SDS011;37364;46.974;18.916;2022-11-15T13:07:00;242.98;;;121.97;;
51286;SDS011;37364;46.974;18.916;2022-11-15T13:18:28;258.52;;;125.53;;
51286;SDS011;37364;46.974;18.916;2022-11-15T13:21:05;255.55;;;127.68;;
51286;SDS011;37364;46.974;18.916;2022-11-15T13:24:00;267.40;;;131.20;;
51286;SDS011;37364;46.974;18.916;2022-11-15T13:26:31;276.75;;;129.82;;
51286;SDS011;37364;46.974;18.916;2022-11-15T13:29:01;257.90;;;121.78;;
51286;SDS011;37364;46.974;18.916;2022-11-15T13:31:34;199.50;;;109.93;;
51286;SDS011;37364;46.974;18.916;2022-11-15T13:34:15;195.57;;;112.45;;
51286;SDS011;37364;46.974;18.916;2022-11-15T13:37:16;227.20;;;118.07;;
51286;SDS011;37364;46.974;18.916;2022-11-15T13:42:55;252.65;;;124.03;;
51286;SDS011;37364;46.974;18.916;2022-11-15T13:45:25;272.65;;;130.32;;
51286;SDS011;37364;46.974;18.916;2022-11-15T13:47:57;266.98;;;130.63;;
51286;SDS011;37364;46.974;18.916;2022-11-15T13:50:28;270.38;;;134.27;;
51286;SDS011;37364;46.974;18.916;2022-11-15T13:53:06;236.23;;;119.40;;
51286;SDS011;37364;46.974;18.916;2022-11-15T13:55:39;190.25;;;103.13;;
51286;SDS011;37364;46.974;18.916;2022-11-15T13:58:09;194.68;;;105.03;;
51286;SDS011;37364;46.974;18.916;2022-11-15T14:00:41;228.07;;;118.07;;
51286;SDS011;37364;46.974;18.916;2022-11-15T14:03:15;240.38;;;123.30;;
51286;SDS011;37364;46.974;18.916;2022-11-15T14:06:01;291.10;;;137.82;;
51286;SDS011;37364;46.974;18.916;2022-11-15T14:08:36;239.75;;;123.55;;
51286;SDS011;37364;46.974;18.916;2022-11-15T14:11:08;218.40;;;110.20;;
51286;SDS011;37364;46.974;18.916;2022-11-15T14:13:58;163.35;;;98.70;;
51286;SDS011;37364;46.974;18.916;2022-11-15T14:16:33;168.05;;;98.40;;
51286;SDS011;37364;46.974;18.916;2022-11-15T14:19:05;164.07;;;102.50;;
51286;SDS011;37364;46.974;18.916;2022-11-15T14:24:43;156.43;;;95.30;;
51286;SDS011;37364;46.974;18.916;2022-11-15T14:27:16;142.40;;;95.18;;
51286;SDS011;37364;46.974;18.916;2022-11-15T14:29:47;151.23;;;96.03;;
51286;SDS011;37364;46.974;18.916;2022-11-15T14:32:18;148.30;;;93.45;;
51286;SDS011;37364;46.974;18.916;2022-11-15T14:34:53;134.88;;;91.85;;
51286;SDS011;37364;46.974;18.916;2022-11-15T14:37:25;152.20;;;97.30;;
51286;SDS011;37364;46.974;18.916;2022-11-15T14:40:01;146.40;;;92.38;;
51286;SDS011;37364;46.974;18.916;2022-11-15T14:42:33;138.43;;;94.00;;
51286;SDS011;37364;46.974;18.916;2022-11-15T14:45:04;142.35;;;92.93;;
51286;SDS011;37364;46.974;18.916;2022-11-15T14:47:42;142.98;;;94.47;;
51286;SDS011;37364;46.974;18.916;2022-11-15T14:50:13;140.80;;;95.43;;
51286;SDS011;37364;46.974;18.916;2022-11-15T14:52:45;142.52;;;94.05;;
51286;SDS011;37364;46.974;18.916;2022-11-15T14:55:19;143.52;;;95.78;;
51286;SDS011;37364;46.974;18.916;2022-11-15T14:57:53;144.20;;;95.22;;
51286;SDS011;37364;46.974;18.916;2022-11-15T15:00:24;155.38;;;96.72;;
51286;SDS011;37364;46.974;18.916;2022-11-15T15:03:01;142.77;;;95.07;;
51286;SDS011;37364;46.974;18.916;2022-11-15T15:05:34;148.40;;;96.47;;
51286;SDS011;37364;46.974;18.916;2022-11-15T15:08:06;155.65;;;100.68;;
51286;SDS011;37364;46.974;18.916;2022-11-15T15:10:40;162.15;;;103.03;;
51286;SDS011;37364;46.974;18.916;2022-11-15T15:13:14;154.60;;;100.82;;
51286;SDS011;37364;46.974;18.916;2022-11-15T15:15:47;163.10;;;102.47;;
51286;SDS011;37364;46.974;18.916;2022-11-15T15:18:18;181.45;;;105.57;;
51286;SDS011;37364;46.974;18.916;2022-11-15T15:20:51;186.88;;;112.05;;
51286;SDS011;37364;46.974;18.916;2022-11-15T15:23:28;185.88;;;120.72;;
51286;SDS011;37364;46.974;18.916;2022-11-15T15:26:01;180.63;;;110.25;;
51286;SDS011;37364;46.974;18.916;2022-11-15T15:28:31;175.82;;;112.88;;
51286;SDS011;37364;46.974;18.916;2022-11-15T15:31:03;185.15;;;110.05;;
51286;SDS011;37364;46.974;18.916;2022-11-15T15:33:33;172.48;;;106.78;;
51286;SDS011;37364;46.974;18.916;2022-11-15T15:36:03;187.52;;;116.63;;
51286;SDS011;37364;46.974;18.916;2022-11-15T15:38:35;174.27;;;113.60;;
51286;SDS011;37364;46.974;18.916;2022-11-15T15:41:11;190.68;;;120.97;;
51286;SDS011;37364;46.974;18.916;2022-11-15T15:43:42;184.93;;;115.78;;
51286;SDS011;37364;46.974;18.916;2022-11-15T15:46:15;207.57;;;129.07;;
51286;SDS011;37364;46.974;18.916;2022-11-15T15:48:46;224.73;;;132.98;;
51286;SDS011;37364;46.974;18.916;2022-11-15T15:51:17;222.20;;;131.55;;
51286;SDS011;37364;46.974;18.916;2022-11-15T15:53:47;208.65;;;121.35;;
51286;SDS011;37364;46.974;18.916;2022-11-15T15:56:21;207.07;;;122.35;;
51286;SDS011;37364;46.974;18.916;2022-11-15T15:58:52;212.65;;;123.15;;
51286;SDS011;37364;46.974;18.916;2022-11-15T16:01:22;247.07;;;129.65;;
51286;SDS011;37364;46.974;18.916;2022-11-15T16:03:52;257.55;;;130.98;;
51286;SDS011;37364;46.974;18.916;2022-11-15T16:06:25;275.83;;;135.32;;
51286;SDS011;37364;46.974;18.916;2022-11-15T16:09:04;249.75;;;127.53;;
51286;SDS011;37364;46.974;18.916;2022-11-15T16:11:46;263.13;;;132.23;;
51286;SDS011;37364;46.974;18.916;2022-11-15T16:14:16;259.20;;;134.07;;
51286;SDS011;37364;46.974;18.916;2022-11-15T16:16:46;526.70;;;355.20;;
51286;SDS011;37364;46.974;18.916;2022-11-15T16:19:16;302.02;;;149.38;;
51286;SDS011;37364;46.974;18.916;2022-11-15T16:21:46;245.05;;;129.43;;
51286;SDS011;37364;46.974;18.916;2022-11-15T16:24:18;254.85;;;128.05;;
51286;SDS011;37364;46.974;18.916;2022-11-15T16:26:51;263.60;;;126.93;;
51286;SDS011;37364;46.974;18.916;2022-11-15T16:29:22;236.73;;;127.77;;